Time;durP1;ratioP1;P1;durP2;ratioP2;P2;SDS_P1;SDS_P2;PMS_P1;PMS_P2;Temp;Humidity;BMP_temperature;BMP_pressure;BME280_temperature;BME280_humidity;BME280_pressure;Samples;Min_cycle;Max_cycle;Signal;HPM_P1;HPM_P2
2022/02/22 00:01:13;;;;;;;16.42;3.05;;;;;;;;;;5042317;28;20033;-67
2022/02/22 00:03:40;;;;;;;14.77;3.33;;;;;;;;;;5040984;28;20037;-67
2022/02/22 00:06:07;;;;;;;17.70;3.40;;;;;;;;;;5043360;28;20080;-67
2022/02/22 00:08:33;;;;;;;15.80;3.72;;;;;;;;;;5045872;28;20017;-67
2022/02/22 00:11:00;;;;;;;17.48;3.50;;;;;;;;;;5044792;28;20033;-67
2022/02/22 00:13:27;;;;;;;18.42;3.45;;;;;;;;;;5041244;28;20041;-67
2022/02/22 00:15:53;;;;;;;16.58;3.50;;;;;;;;;;5039741;28;20120;-67
2022/02/22 00:18:19;;;;;;;18.00;3.25;;;;;;;;;;5041632;28;20602;-67
2022/02/22 00:20:46;;;;;;;19.10;3.80;;;;;;;;;;5042954;28;20532;-67
2022/02/22 00:23:12;;;;;;;16.42;3.30;;;;;;;;;;5040398;28;20037;-67
2022/02/22 00:25:38;;;;;;;18.88;3.83;;;;;;;;;;5042935;28;20037;-67
2022/02/22 00:28:05;;;;;;;21.67;4.15;;;;;;;;;;5043711;28;20037;-67
2022/02/22 00:30:31;;;;;;;22.67;3.75;;;;;;;;;;5040343;28;20109;-67
2022/02/22 00:32:58;;;;;;;21.10;3.08;;;;;;;;;;5040747;28;20108;-67
2022/02/22 00:35:24;;;;;;;17.52;3.75;;;;;;;;;;5043867;28;20388;-67
2022/02/22 00:37:50;;;;;;;15.43;3.90;;;;;;;;;;5038998;28;20017;-67
2022/02/22 00:40:17;;;;;;;22.80;3.70;;;;;;;;;;5040599;28;20035;-67
2022/02/22 00:42:43;;;;;;;14.60;3.90;;;;;;;;;;5039171;28;20036;-67
2022/02/22 00:45:10;;;;;;;24.02;3.80;;;;;;;;;;5045114;28;20025;-67
2022/02/22 00:47:37;;;;;;;26.40;4.65;;;;;;;;;;5040328;28;20033;-67
2022/02/22 00:50:04;;;;;;;21.05;4.40;;;;;;;;;;5045058;28;20051;-67
2022/02/22 00:52:30;;;;;;;23.17;4.10;;;;;;;;;;5046320;28;20477;-67
2022/02/22 00:54:57;;;;;;;20.33;4.05;;;;;;;;;;5045635;28;20051;-67
2022/02/22 00:57:23;;;;;;;19.00;4.40;;;;;;;;;;5044798;28;20025;-68
2022/02/22 00:59:49;;;;;;;23.55;3.95;;;;;;;;;;5045074;28;20469;-68
2022/02/22 01:02:15;;;;;;;21.98;3.90;;;;;;;;;;5041425;28;20043;-68
2022/02/22 01:04:41;;;;;;;25.88;3.33;;;;;;;;;;5038240;28;20052;-67
2022/02/22 01:07:07;;;;;;;26.58;4.90;;;;;;;;;;5043791;28;20037;-68
2022/02/22 01:09:34;;;;;;;21.92;4.40;;;;;;;;;;5042439;28;20040;-68
2022/02/22 01:12:00;;;;;;;27.73;4.97;;;;;;;;;;5043553;28;20020;-67
2022/02/22 01:14:26;;;;;;;18.88;5.20;;;;;;;;;;5046127;28;20676;-68
2022/02/22 01:16:52;;;;;;;17.48;3.40;;;;;;;;;;5041755;28;20079;-67
2022/02/22 01:19:19;;;;;;;24.83;4.18;;;;;;;;;;5039093;28;20404;-67
2022/02/22 01:21:45;;;;;;;21.85;4.43;;;;;;;;;;5039281;28;20484;-68
2022/02/22 01:24:11;;;;;;;23.40;3.85;;;;;;;;;;5034890;28;20518;-67
2022/02/22 01:26:37;;;;;;;24.42;4.82;;;;;;;;;;5039031;28;20033;-67
2022/02/22 01:29:03;;;;;;;17.25;3.58;;;;;;;;;;5034833;28;20025;-67
2022/02/22 01:31:30;;;;;;;22.83;4.63;;;;;;;;;;5040054;28;20025;-67
2022/02/22 01:33:57;;;;;;;21.23;3.88;;;;;;;;;;5039431;28;20117;-67
2022/02/22 01:36:23;;;;;;;24.75;5.07;;;;;;;;;;5038224;28;20484;-67
2022/02/22 01:38:51;;;;;;;21.85;4.57;;;;;;;;;;5046557;28;20074;-67
2022/02/22 01:41:18;;;;;;;21.27;3.92;;;;;;;;;;5038163;28;20567;-68
2022/02/22 01:43:44;;;;;;;18.33;3.67;;;;;;;;;;5035596;28;20109;-67
2022/02/22 01:46:10;;;;;;;22.48;4.50;;;;;;;;;;5041515;28;20067;-67
2022/02/22 01:48:36;;;;;;;20.40;4.65;;;;;;;;;;5034722;28;20109;-68
2022/02/22 01:51:03;;;;;;;24.63;4.25;;;;;;;;;;5038326;28;20695;-67
2022/02/22 01:53:29;;;;;;;19.08;4.88;;;;;;;;;;5034363;28;20026;-68
2022/02/22 01:55:55;;;;;;;20.48;4.72;;;;;;;;;;5036479;28;20389;-67
2022/02/22 01:58:21;;;;;;;23.05;4.80;;;;;;;;;;5035082;28;20024;-67
2022/02/22 02:00:47;;;;;;;33.05;6.10;;;;;;;;;;5038333;28;20037;-67
2022/02/22 02:03:14;;;;;;;30.83;5.07;;;;;;;;;;5037911;28;20032;-67
2022/02/22 02:05:40;;;;;;;23.10;4.55;;;;;;;;;;5035188;28;20037;-67
2022/02/22 02:08:06;;;;;;;19.13;4.65;;;;;;;;;;5035667;28;20041;-67
2022/02/22 02:10:33;;;;;;;19.48;4.15;;;;;;;;;;5038380;28;20025;-67
2022/02/22 02:12:59;;;;;;;22.02;4.53;;;;;;;;;;5038861;28;20025;-67
2022/02/22 02:15:25;;;;;;;26.75;3.85;;;;;;;;;;5037531;28;20107;-67
2022/02/22 02:17:51;;;;;;;25.02;4.32;;;;;;;;;;5038637;28;20036;-67
2022/02/22 02:20:17;;;;;;;19.20;4.85;;;;;;;;;;5038590;28;20029;-67
2022/02/22 02:22:43;;;;;;;28.95;5.13;;;;;;;;;;5041055;28;20038;-67
2022/02/22 02:25:10;;;;;;;25.92;5.35;;;;;;;;;;5035636;28;20024;-67
2022/02/22 02:27:36;;;;;;;27.95;5.15;;;;;;;;;;5038149;28;20050;-67
2022/02/22 02:30:04;;;;;;;16.27;4.18;;;;;;;;;;5034890;28;20383;-68
2022/02/22 02:32:30;;;;;;;16.95;3.90;;;;;;;;;;5039052;28;20033;-67
2022/02/22 02:34:56;;;;;;;18.73;4.93;;;;;;;;;;5033584;28;20698;-67
2022/02/22 02:37:23;;;;;;;27.05;4.68;;;;;;;;;;5037639;28;20041;-67
2022/02/22 02:39:49;;;;;;;22.98;4.25;;;;;;;;;;5035923;28;20029;-67
2022/02/22 02:42:17;;;;;;;34.45;5.30;;;;;;;;;;5038754;28;20791;-67
2022/02/22 02:44:44;;;;;;;32.10;5.97;;;;;;;;;;5039695;28;20032;-68
2022/02/22 02:47:10;;;;;;;17.98;4.45;;;;;;;;;;5034752;28;20941;-67
2022/02/22 02:49:37;;;;;;;25.33;4.78;;;;;;;;;;5038726;28;20070;-67
2022/02/22 02:52:04;;;;;;;20.05;4.28;;;;;;;;;;5034803;28;20028;-67
2022/02/22 02:54:30;;;;;;;23.85;4.15;;;;;;;;;;5036878;28;20029;-67
2022/02/22 02:56:56;;;;;;;23.63;4.90;;;;;;;;;;5034681;28;20029;-67
2022/02/22 02:59:22;;;;;;;25.60;5.53;;;;;;;;;;5035253;28;20469;-67
2022/02/22 03:01:48;;;;;;;28.83;5.20;;;;;;;;;;5041495;28;20038;-66
2022/02/22 03:04:16;;;;;;;29.10;5.97;;;;;;;;;;5041566;28;20042;-67
2022/02/22 03:06:42;;;;;;;25.83;4.50;;;;;;;;;;5038039;28;20033;-67
2022/02/22 03:09:09;;;;;;;28.92;7.03;;;;;;;;;;5040656;28;20033;-67
2022/02/22 03:11:35;;;;;;;23.08;4.57;;;;;;;;;;5037273;28;20028;-67
2022/02/22 03:14:02;;;;;;;23.20;4.15;;;;;;;;;;5044633;28;20021;-67
2022/02/22 03:16:28;;;;;;;26.20;4.20;;;;;;;;;;5042138;28;20027;-67
2022/02/22 03:18:54;;;;;;;26.55;5.00;;;;;;;;;;5045588;28;20025;-67
2022/02/22 03:21:20;;;;;;;22.40;4.40;;;;;;;;;;5036476;28;20109;-67
2022/02/22 03:23:46;;;;;;;30.38;4.63;;;;;;;;;;5036288;28;20031;-67
2022/02/22 03:26:12;;;;;;;21.30;4.00;;;;;;;;;;5041018;28;20041;-67
2022/02/22 03:28:39;;;;;;;24.25;4.65;;;;;;;;;;5039628;28;20048;-67
2022/02/22 03:31:05;;;;;;;27.77;3.58;;;;;;;;;;5039565;28;20481;-67
2022/02/22 03:33:34;;;;;;;18.65;4.13;;;;;;;;;;5048890;28;20040;-67
2022/02/22 03:36:02;;;;;;;20.60;3.90;;;;;;;;;;5037811;28;20021;-67
2022/02/22 03:38:28;;;;;;;22.25;3.80;;;;;;;;;;5037000;28;20022;-67
2022/02/22 03:40:55;;;;;;;25.73;4.90;;;;;;;;;;5040966;28;20033;-67
2022/02/22 03:43:21;;;;;;;22.88;4.07;;;;;;;;;;5041063;28;20017;-67
2022/02/22 03:45:47;;;;;;;29.23;4.47;;;;;;;;;;5034357;28;20040;-67
2022/02/22 03:48:13;;;;;;;24.60;4.22;;;;;;;;;;5028347;28;20107;-67
2022/02/22 03:50:39;;;;;;;21.23;4.72;;;;;;;;;;5039949;28;20080;-67
2022/02/22 03:53:05;;;;;;;17.02;4.32;;;;;;;;;;5038811;28;20021;-67
2022/02/22 03:55:32;;;;;;;25.60;4.43;;;;;;;;;;5037221;28;20474;-67
2022/02/22 03:57:58;;;;;;;33.22;5.55;;;;;;;;;;5040450;28;20040;-67
2022/02/22 04:00:25;;;;;;;25.98;4.65;;;;;;;;;;5040812;28;20488;-67
2022/02/22 04:02:52;;;;;;;24.02;4.30;;;;;;;;;;5036028;28;20127;-67
2022/02/22 04:05:20;;;;;;;25.38;5.40;;;;;;;;;;5036128;28;20374;-67
2022/02/22 04:07:47;;;;;;;14.20;3.72;;;;;;;;;;5042184;28;20045;-67
2022/02/22 04:10:13;;;;;;;17.75;3.50;;;;;;;;;;5043713;28;20051;-67
2022/02/22 04:12:40;;;;;;;17.67;5.03;;;;;;;;;;5043403;28;20095;-67
2022/02/22 04:15:07;;;;;;;24.80;4.85;;;;;;;;;;5043534;28;20033;-67
2022/02/22 04:17:33;;;;;;;18.85;4.13;;;;;;;;;;5043184;28;20033;-67
2022/02/22 04:19:59;;;;;;;28.73;4.50;;;;;;;;;;5043549;28;20029;-67
2022/02/22 04:22:26;;;;;;;20.88;3.70;;;;;;;;;;5042469;28;20103;-66
2022/02/22 04:24:52;;;;;;;22.92;4.35;;;;;;;;;;5043215;28;20651;-66
2022/02/22 04:27:18;;;;;;;19.90;4.07;;;;;;;;;;5043358;28;20128;-66
2022/02/22 04:29:44;;;;;;;29.10;4.38;;;;;;;;;;5043321;28;20028;-66
2022/02/22 04:32:11;;;;;;;28.98;5.68;;;;;;;;;;5043349;28;20021;-66
2022/02/22 04:34:37;;;;;;;19.30;4.07;;;;;;;;;;5041685;28;20429;-67
2022/02/22 04:37:04;;;;;;;26.60;5.05;;;;;;;;;;5043380;28;20591;-67
2022/02/22 04:39:30;;;;;;;25.02;5.35;;;;;;;;;;5043751;28;20074;-66
2022/02/22 04:41:56;;;;;;;22.58;4.60;;;;;;;;;;5042863;28;20029;-67
2022/02/22 04:44:22;;;;;;;20.80;4.82;;;;;;;;;;5042657;28;20048;-67
2022/02/22 04:46:48;;;;;;;24.60;5.53;;;;;;;;;;5041437;28;20048;-67
2022/02/22 04:49:14;;;;;;;19.95;4.68;;;;;;;;;;5043289;28;20033;-66
2022/02/22 04:51:41;;;;;;;22.00;4.45;;;;;;;;;;5042693;28;20047;-66
2022/02/22 04:54:08;;;;;;;27.63;5.15;;;;;;;;;;5042689;28;20033;-67
2022/02/22 04:56:35;;;;;;;23.25;5.10;;;;;;;;;;5043251;28;20033;-66
2022/02/22 04:59:01;;;;;;;26.80;5.60;;;;;;;;;;5043041;28;20132;-67
2022/02/22 05:01:27;;;;;;;29.85;4.88;;;;;;;;;;5040820;28;20504;-67
2022/02/22 05:03:53;;;;;;;26.25;6.28;;;;;;;;;;5042663;28;20061;-67
2022/02/22 05:06:20;;;;;;;28.23;4.93;;;;;;;;;;5042777;28;20090;-66
2022/02/22 05:08:46;;;;;;;28.38;5.20;;;;;;;;;;5042765;28;20029;-66
2022/02/22 05:11:12;;;;;;;21.42;3.88;;;;;;;;;;5042235;28;20102;-66
2022/02/22 05:13:38;;;;;;;27.33;5.38;;;;;;;;;;5042703;28;20025;-67
2022/02/22 05:16:05;;;;;;;28.13;4.95;;;;;;;;;;5040829;28;20033;-67
2022/02/22 05:18:32;;;;;;;26.48;4.63;;;;;;;;;;5042396;28;20503;-67
2022/02/22 05:20:58;;;;;;;26.05;5.22;;;;;;;;;;5042668;28;20074;-66
2022/02/22 05:23:31;;;;;;;21.67;4.78;;;;;;;;;;5040589;28;20445;-67
2022/02/22 05:25:57;;;;;;;25.77;5.68;;;;;;;;;;5042450;28;20029;-67
2022/02/22 05:28:23;;;;;;;25.77;4.13;;;;;;;;;;5042676;28;20036;-66
2022/02/22 05:30:53;;;;;;;28.77;4.22;;;;;;;;;;5040902;28;20652;-67
2022/02/22 05:33:20;;;;;;;25.95;4.47;;;;;;;;;;5042740;28;20076;-67
2022/02/22 05:35:46;;;;;;;32.90;5.07;;;;;;;;;;5042187;28;20064;-66
2022/02/22 05:38:13;;;;;;;23.90;4.95;;;;;;;;;;5040857;28;20033;-67
2022/02/22 05:40:39;;;;;;;22.00;4.72;;;;;;;;;;5042512;28;20584;-67
2022/02/22 05:43:05;;;;;;;22.63;5.00;;;;;;;;;;5041948;28;20509;-67
2022/02/22 05:45:31;;;;;;;29.60;6.05;;;;;;;;;;5042181;28;20063;-68
2022/02/22 05:47:58;;;;;;;28.83;5.80;;;;;;;;;;5040202;28;20033;-66
2022/02/22 05:50:24;;;;;;;27.85;5.47;;;;;;;;;;5042454;28;20132;-69
2022/02/22 05:52:52;;;;;;;24.65;4.57;;;;;;;;;;5042050;28;20587;-66
2022/02/22 05:55:18;;;;;;;23.60;5.70;;;;;;;;;;5041977;28;20647;-66
2022/02/22 05:57:45;;;;;;;23.85;4.35;;;;;;;;;;5040429;28;20033;-66
2022/02/22 06:00:11;;;;;;;23.13;5.18;;;;;;;;;;5041737;28;20033;-66
2022/02/22 06:02:38;;;;;;;21.35;4.20;;;;;;;;;;5041940;28;20021;-66
2022/02/22 06:05:04;;;;;;;16.67;4.43;;;;;;;;;;5041853;28;20053;-67
2022/02/22 06:07:30;;;;;;;22.02;3.90;;;;;;;;;;5040014;28;20036;-67
2022/02/22 06:09:56;;;;;;;24.35;4.43;;;;;;;;;;5041824;28;20547;-67
2022/02/22 06:12:22;;;;;;;25.38;4.60;;;;;;;;;;5041489;28;20599;-67
2022/02/22 06:14:49;;;;;;;20.55;4.07;;;;;;;;;;5040468;28;20032;-67
2022/02/22 06:17:15;;;;;;;27.77;4.57;;;;;;;;;;5042199;28;20107;-66
2022/02/22 06:19:41;;;;;;;24.98;4.75;;;;;;;;;;5041784;28;20408;-67
2022/02/22 06:22:07;;;;;;;20.20;4.55;;;;;;;;;;5041930;28;20028;-67
2022/02/22 06:24:33;;;;;;;17.25;4.25;;;;;;;;;;5041417;28;20519;-67
2022/02/22 06:26:59;;;;;;;24.40;4.07;;;;;;;;;;5039710;28;20064;-67
2022/02/22 06:29:26;;;;;;;21.75;4.32;;;;;;;;;;5041799;28;20013;-66
2022/02/22 06:31:52;;;;;;;21.42;4.40;;;;;;;;;;5041281;28;20037;-67
2022/02/22 06:34:19;;;;;;;20.75;4.78;;;;;;;;;;5043475;28;20079;-68
2022/02/22 06:36:45;;;;;;;19.77;4.22;;;;;;;;;;5045650;28;20112;-67
2022/02/22 06:39:11;;;;;;;17.80;4.30;;;;;;;;;;5043497;28;20029;-67
2022/02/22 06:41:37;;;;;;;20.90;4.03;;;;;;;;;;5045716;28;20033;-66
2022/02/22 06:44:04;;;;;;;23.88;4.45;;;;;;;;;;5045833;28;20025;-67
2022/02/22 06:46:30;;;;;;;19.52;4.45;;;;;;;;;;5028542;28;20075;-66
2022/02/22 06:48:56;;;;;;;20.13;4.63;;;;;;;;;;5023403;28;20025;-66
2022/02/22 06:51:22;;;;;;;18.90;3.55;;;;;;;;;;5025057;28;20719;-66
2022/02/22 06:53:49;;;;;;;19.88;3.78;;;;;;;;;;5025375;28;20021;-66
2022/02/22 06:56:15;;;;;;;17.73;4.90;;;;;;;;;;5035207;28;20078;-66
2022/02/22 06:58:41;;;;;;;21.83;3.83;;;;;;;;;;5028554;28;20032;-68
2022/02/22 07:01:07;;;;;;;20.73;4.05;;;;;;;;;;5023244;28;20025;-66
2022/02/22 07:03:33;;;;;;;28.50;4.93;;;;;;;;;;5024659;28;20140;-66
2022/02/22 07:06:01;;;;;;;23.05;3.92;;;;;;;;;;5024580;28;20037;-66
2022/02/22 07:08:27;;;;;;;17.38;3.95;;;;;;;;;;5024261;28;20469;-67
2022/02/22 07:10:53;;;;;;;21.20;4.32;;;;;;;;;;5024148;28;20037;-71
2022/02/22 07:13:19;;;;;;;21.83;4.75;;;;;;;;;;5029373;28;20044;-67
2022/02/22 07:15:45;;;;;;;23.90;4.05;;;;;;;;;;5044768;28;20548;-67
2022/02/22 07:18:13;;;;;;;26.05;4.57;;;;;;;;;;5043218;28;20033;-67
2022/02/22 07:20:39;;;;;;;20.27;3.55;;;;;;;;;;5031748;28;20056;-68
2022/02/22 07:23:05;;;;;;;18.70;3.47;;;;;;;;;;5022746;28;20112;-66
2022/02/22 07:25:32;;;;;;;18.38;3.88;;;;;;;;;;5023248;28;20036;-66
2022/02/22 07:27:59;;;;;;;27.85;5.75;;;;;;;;;;5026701;28;20033;-66
2022/02/22 07:30:26;;;;;;;23.08;4.38;;;;;;;;;;5042398;28;20628;-66
2022/02/22 07:32:55;;;;;;;20.17;4.10;;;;;;;;;;5035087;28;20045;-67
2022/02/22 07:35:21;;;;;;;17.30;4.00;;;;;;;;;;5024955;28;20030;-66
2022/02/22 07:37:47;;;;;;;28.00;5.00;;;;;;;;;;5021826;28;20294;-67
2022/02/22 07:40:15;;;;;;;20.60;4.07;;;;;;;;;;5020226;28;20060;-67
2022/02/22 07:42:41;;;;;;;31.85;4.57;;;;;;;;;;5021816;28;20026;-68
2022/02/22 07:45:08;;;;;;;21.02;4.00;;;;;;;;;;5036093;28;20397;-67
2022/02/22 07:47:34;;;;;;;19.05;3.97;;;;;;;;;;5042167;28;20041;-66
2022/02/22 07:50:00;;;;;;;25.98;4.85;;;;;;;;;;5041996;28;20099;-66
2022/02/22 07:52:27;;;;;;;16.52;3.40;;;;;;;;;;5041701;28;20059;-66
2022/02/22 07:54:53;;;;;;;17.30;3.90;;;;;;;;;;5040473;28;20121;-66
2022/02/22 07:57:19;;;;;;;21.67;4.97;;;;;;;;;;5041797;28;20047;-67
2022/02/22 07:59:45;;;;;;;19.00;4.18;;;;;;;;;;5042212;28;20029;-68
2022/02/22 08:02:12;;;;;;;19.63;4.28;;;;;;;;;;5041585;28;20048;-66
2022/02/22 08:04:40;;;;;;;24.25;4.13;;;;;;;;;;5040205;28;20049;-66
2022/02/22 08:07:06;;;;;;;23.20;3.97;;;;;;;;;;5030668;28;20029;-67
2022/02/22 08:09:32;;;;;;;18.42;4.35;;;;;;;;;;5021700;28;20021;-66
2022/02/22 08:11:58;;;;;;;27.00;4.72;;;;;;;;;;5021425;28;20040;-66
2022/02/22 08:14:25;;;;;;;20.92;3.72;;;;;;;;;;5031085;28;20028;-67
2022/02/22 08:16:56;;;;;;;18.27;3.88;;;;;;;;;;5040112;28;20056;-67
2022/02/22 08:19:22;;;;;;;20.65;4.55;;;;;;;;;;5039895;28;20066;-69
2022/02/22 08:21:48;;;;;;;15.02;3.28;;;;;;;;;;5020641;28;20055;-67
2022/02/22 08:24:14;;;;;;;30.73;4.07;;;;;;;;;;5023005;28;20477;-67
2022/02/22 08:26:40;;;;;;;20.60;4.38;;;;;;;;;;5033942;28;20045;-69
2022/02/22 08:29:07;;;;;;;17.98;4.03;;;;;;;;;;5020842;28;20083;-68
2022/02/22 08:31:33;;;;;;;21.60;4.53;;;;;;;;;;5028953;28;20086;-67
2022/02/22 08:33:59;;;;;;;24.88;5.18;;;;;;;;;;5025414;28;20053;-67
2022/02/22 08:36:27;;;;;;;21.77;4.47;;;;;;;;;;5023474;28;20360;-67
2022/02/22 08:38:54;;;;;;;19.98;3.83;;;;;;;;;;5022429;28;20022;-68
2022/02/22 08:41:20;;;;;;;26.40;5.05;;;;;;;;;;5036824;28;20489;-67
2022/02/22 08:43:46;;;;;;;29.80;4.38;;;;;;;;;;5042630;28;20036;-68
2022/02/22 08:46:12;;;;;;;22.60;5.40;;;;;;;;;;5030499;28;20509;-67
2022/02/22 08:48:38;;;;;;;19.50;4.40;;;;;;;;;;5033666;28;20025;-67
2022/02/22 08:51:04;;;;;;;29.52;5.35;;;;;;;;;;5022585;28;20040;-68
2022/02/22 08:53:30;;;;;;;23.75;4.60;;;;;;;;;;5022122;28;20025;-67
2022/02/22 08:55:59;;;;;;;17.95;4.25;;;;;;;;;;5024835;28;20029;-68
2022/02/22 08:58:25;;;;;;;18.00;3.17;;;;;;;;;;5022678;28;20033;-67
2022/02/22 09:00:51;;;;;;;11.35;2.50;;;;;;;;;;5021003;28;20022;-68
2022/02/22 09:03:17;;;;;;;12.35;3.00;;;;;;;;;;5022154;28;20029;-67
2022/02/22 09:05:43;;;;;;;14.65;3.20;;;;;;;;;;5022303;28;20526;-67
2022/02/22 09:08:09;;;;;;;14.57;2.97;;;;;;;;;;5021267;28;20056;-67
2022/02/22 09:10:36;;;;;;;11.82;2.40;;;;;;;;;;5022725;28;20029;-69
2022/02/22 09:13:02;;;;;;;9.95;2.40;;;;;;;;;;5028873;28;20056;-71
2022/02/22 09:15:31;;;;;;;11.60;2.53;;;;;;;;;;5022153;28;20037;-67
2022/02/22 09:17:58;;;;;;;9.63;1.67;;;;;;;;;;5033422;28;20028;-67
2022/02/22 09:20:24;;;;;;;17.27;3.08;;;;;;;;;;5041750;28;20704;-67
2022/02/22 09:22:50;;;;;;;17.80;2.90;;;;;;;;;;5034212;28;20486;-67
2022/02/22 09:25:18;;;;;;;14.05;2.97;;;;;;;;;;5022383;28;20061;-67
2022/02/22 09:27:45;;;;;;;12.35;2.33;;;;;;;;;;5024219;28;20037;-67
2022/02/22 09:30:15;;;;;;;11.18;2.75;;;;;;;;;;5042232;28;20028;-66
2022/02/22 09:32:42;;;;;;;11.25;2.30;;;;;;;;;;5030425;28;20139;-68
2022/02/22 09:35:08;;;;;;;7.25;1.90;;;;;;;;;;5041226;28;20021;-68
2022/02/22 09:37:35;;;;;;;10.15;1.98;;;;;;;;;;5028629;28;20393;-69
2022/02/22 09:40:02;;;;;;;7.88;1.90;;;;;;;;;;5021294;28;20108;-68
2022/02/22 09:42:28;;;;;;;16.85;2.97;;;;;;;;;;5025083;28;20021;-68
2022/02/22 09:44:54;;;;;;;10.70;2.42;;;;;;;;;;5021496;28;20037;-67
2022/02/22 09:47:20;;;;;;;11.40;2.35;;;;;;;;;;5021820;28;20083;-67
2022/02/22 09:49:47;;;;;;;11.95;2.58;;;;;;;;;;5021218;28;20032;-68
2022/02/22 09:52:13;;;;;;;14.68;3.13;;;;;;;;;;5021853;28;20025;-67
2022/02/22 09:54:39;;;;;;;11.60;2.70;;;;;;;;;;5022277;28;20033;-67
2022/02/22 09:57:06;;;;;;;9.68;1.80;;;;;;;;;;5021623;28;20021;-69
2022/02/22 09:59:32;;;;;;;7.28;2.45;;;;;;;;;;5030906;28;20236;-67
2022/02/22 10:01:58;;;;;;;11.88;2.40;;;;;;;;;;5034610;28;20120;-67
2022/02/22 10:04:25;;;;;;;8.35;2.25;;;;;;;;;;5020600;28;20046;-66
2022/02/22 10:06:52;;;;;;;7.35;2.00;;;;;;;;;;5019954;28;20115;-66
2022/02/22 10:09:21;;;;;;;8.20;2.08;;;;;;;;;;5021720;28;20029;-66
2022/02/22 10:11:49;;;;;;;7.63;1.98;;;;;;;;;;5021966;28;20029;-68
2022/02/22 10:14:24;;;;;;;9.50;2.08;;;;;;;;;;5036704;28;20328;-68
2022/02/22 10:16:50;;;;;;;10.27;2.08;;;;;;;;;;5041303;28;20059;-68
2022/02/22 10:19:17;;;;;;;8.82;2.42;;;;;;;;;;5041784;28;20017;-67
2022/02/22 10:21:44;;;;;;;12.63;3.05;;;;;;;;;;5038859;28;20037;-67
2022/02/22 10:24:11;;;;;;;8.23;2.00;;;;;;;;;;5032247;28;20013;-68
2022/02/22 10:26:37;;;;;;;8.60;2.22;;;;;;;;;;5038498;28;20044;-66
2022/02/22 10:29:20;;;;;;;13.00;2.25;;;;;;;;;;5034032;28;20035;-66
2022/02/22 10:31:47;;;;;;;11.02;2.28;;;;;;;;;;5021633;28;20515;-66
2022/02/22 10:34:14;;;;;;;9.30;2.03;;;;;;;;;;5023343;28;20017;-67
2022/02/22 10:36:41;;;;;;;10.13;2.15;;;;;;;;;;5039531;28;20032;-66
2022/02/22 10:39:09;;;;;;;15.13;3.00;;;;;;;;;;5041619;28;20029;-66
2022/02/22 10:41:38;;;;;;;7.97;1.60;;;;;;;;;;5041202;28;20029;-68
2022/02/22 10:44:06;;;;;;;11.50;2.55;;;;;;;;;;5041400;28;20056;-68
2022/02/22 10:46:35;;;;;;;10.90;2.85;;;;;;;;;;5040840;28;20043;-69
2022/02/22 10:49:06;;;;;;;10.50;2.47;;;;;;;;;;5039649;28;20037;-66
2022/02/22 10:51:41;;;;;;;9.75;2.28;;;;;;;;;;5041021;28;20025;-67
2022/02/22 10:54:08;;;;;;;9.73;1.98;;;;;;;;;;5041114;28;20465;-66
2022/02/22 10:56:34;;;;;;;8.75;2.55;;;;;;;;;;5041415;28;20028;-69
2022/02/22 10:59:01;;;;;;;10.50;2.28;;;;;;;;;;5037873;28;20090;-69
2022/02/22 11:01:27;;;;;;;9.13;2.33;;;;;;;;;;5041611;28;20086;-68
2022/02/22 11:03:54;;;;;;;10.27;2.20;;;;;;;;;;5039453;28;20573;-67
2022/02/22 11:06:20;;;;;;;5.32;1.85;;;;;;;;;;5040172;28;20025;-68
2022/02/22 11:08:53;;;;;;;20.75;3.72;;;;;;;;;;5040663;28;20670;-66
2022/02/22 11:11:25;;;;;;;9.07;2.13;;;;;;;;;;5040858;28;20521;-66
2022/02/22 11:13:56;;;;;;;13.48;2.50;;;;;;;;;;5039393;28;20109;-67
2022/02/22 11:16:22;;;;;;;13.05;2.53;;;;;;;;;;5040773;28;20028;-66
2022/02/22 11:18:50;;;;;;;11.27;2.85;;;;;;;;;;5040709;28;20040;-66
2022/02/22 11:21:17;;;;;;;15.60;2.75;;;;;;;;;;5042150;28;20100;-69
2022/02/22 11:23:43;;;;;;;13.10;2.78;;;;;;;;;;5043075;28;20514;-66
2022/02/22 11:26:10;;;;;;;7.93;2.05;;;;;;;;;;5044522;28;20053;-66
2022/02/22 11:28:37;;;;;;;6.22;2.03;;;;;;;;;;5042260;28;20049;-67
2022/02/22 11:31:10;;;;;;;11.38;3.22;;;;;;;;;;5044434;28;20033;-66
2022/02/22 11:33:46;;;;;;;12.07;2.58;;;;;;;;;;5041798;28;20589;-70
2022/02/22 11:36:24;;;;;;;9.50;2.25;;;;;;;;;;5047605;28;20033;-66
2022/02/22 11:38:52;;;;;;;11.35;2.63;;;;;;;;;;5043670;28;20017;-67
2022/02/22 11:41:21;;;;;;;7.57;1.90;;;;;;;;;;5042004;28;20033;-67
2022/02/22 11:43:51;;;;;;;11.48;2.20;;;;;;;;;;5041754;28;20130;-67
2022/02/22 11:46:17;;;;;;;11.75;2.67;;;;;;;;;;5041086;28;20152;-71
2022/02/22 11:48:44;;;;;;;7.10;2.30;;;;;;;;;;5040868;28;20484;-67
2022/02/22 11:51:15;;;;;;;8.55;2.22;;;;;;;;;;5043671;28;20284;-70
2022/02/22 11:53:41;;;;;;;6.90;2.20;;;;;;;;;;5042545;28;20123;-67
2022/02/22 11:56:08;;;;;;;17.52;2.42;;;;;;;;;;5042405;28;20037;-69
2022/02/22 12:03:45;;;;;;;10.95;2.83;;;;;;;;;;5083645;28;20048;-71
2022/02/22 12:06:12;;;;;;;16.52;2.67;;;;;;;;;;5065199;28;20376;-71
2022/02/22 12:08:41;;;;;;;10.13;2.95;;;;;;;;;;5083723;28;20024;-73
2022/02/22 12:11:08;;;;;;;8.18;2.60;;;;;;;;;;5083726;28;20016;-72
2022/02/22 12:13:41;;;;;;;10.25;1.98;;;;;;;;;;5082576;28;20024;-71
2022/02/22 12:16:14;;;;;;;13.05;2.70;;;;;;;;;;5083627;28;20575;-71
2022/02/22 12:18:43;;;;;;;11.38;2.30;;;;;;;;;;5082690;28;20036;-71
2022/02/22 12:21:10;;;;;;;8.60;2.45;;;;;;;;;;5082004;28;20040;-71
2022/02/22 12:23:38;;;;;;;9.95;2.17;;;;;;;;;;5097352;28;20035;-71
2022/02/22 12:26:05;;;;;;;12.65;2.35;;;;;;;;;;5103581;28;20035;-72
2022/02/22 12:28:31;;;;;;;12.98;2.60;;;;;;;;;;5103426;28;20019;-73
2022/02/22 12:30:58;;;;;;;10.27;2.35;;;;;;;;;;5102160;28;20015;-70
2022/02/22 12:33:34;;;;;;;10.15;2.67;;;;;;;;;;5103443;28;20024;-71
2022/02/22 12:36:14;;;;;;;13.25;2.70;;;;;;;;;;5103471;28;20418;-71
2022/02/22 12:38:40;;;;;;;8.88;2.20;;;;;;;;;;5103642;28;20451;-71
2022/02/22 12:41:11;;;;;;;10.50;2.40;;;;;;;;;;5102971;28;20490;-71
2022/02/22 12:44:04;;;;;;;17.27;2.75;;;;;;;;;;5101873;28;20031;-72
2022/02/22 12:46:30;;;;;;;9.68;2.38;;;;;;;;;;5097103;28;20027;-72
2022/02/22 12:48:56;;;;;;;8.95;2.50;;;;;;;;;;5102942;28;20115;-75
2022/02/22 12:51:26;;;;;;;10.45;1.88;;;;;;;;;;5102997;28;20031;-74
2022/02/22 12:54:09;;;;;;;13.75;2.65;;;;;;;;;;5083480;28;20043;-71
2022/02/22 12:56:35;;;;;;;9.55;2.35;;;;;;;;;;5103037;28;20070;-71
2022/02/22 12:59:02;;;;;;;9.52;2.25;;;;;;;;;;5103312;28;20047;-71
2022/02/22 13:01:34;;;;;;;9.85;2.53;;;;;;;;;;5100294;28;20062;-74
2022/02/22 13:04:00;;;;;;;;;;;;;;;;;;5084355;28;20580;-83
2022/02/22 13:06:26;;;;;;;9.52;1.88;;;;;;;;;;5082249;28;19930;-84
2022/02/22 13:08:52;;;;;;;7.65;2.60;;;;;;;;;;5083074;28;20103;-73
2022/02/22 13:11:19;;;;;;;6.82;1.95;;;;;;;;;;5082002;28;20069;-83
2022/02/22 13:13:45;;;;;;;10.32;2.60;;;;;;;;;;5082989;28;20640;-81
2022/02/22 13:16:16;;;;;;;9.25;2.30;;;;;;;;;;5081441;28;20032;-84
2022/02/22 13:18:56;;;;;;;10.07;3.33;;;;;;;;;;5084022;28;20016;-75
2022/02/22 13:21:23;;;;;;;9.35;1.98;;;;;;;;;;5082377;28;20024;-79
2022/02/22 13:23:49;;;;;;;7.68;1.88;;;;;;;;;;5081236;28;20031;-82
2022/02/22 13:26:15;;;;;;;7.35;2.38;;;;;;;;;;5066218;28;20032;-75
2022/02/22 13:28:43;;;;;;;6.07;2.00;;;;;;;;;;5083127;28;20020;-84
2022/02/22 13:31:27;;;;;;;15.45;3.17;;;;;;;;;;5083501;28;20108;-73
2022/02/22 13:34:03;;;;;;;10.23;2.75;;;;;;;;;;5083685;28;20058;-86
2022/02/22 13:36:29;;;;;;;8.57;2.13;;;;;;;;;;5063133;28;20437;-82
2022/02/22 13:38:56;;;;;;;10.40;2.15;;;;;;;;;;5082817;28;20032;-77
2022/02/22 13:41:30;;;;;;;11.55;2.33;;;;;;;;;;5083560;28;20024;-76
2022/02/22 13:43:56;;;;;;;4.82;1.70;;;;;;;;;;5082089;28;20032;-79
2022/02/22 13:46:29;;;;;;;11.85;2.47;;;;;;;;;;5083620;28;20472;-83
2022/02/22 13:49:02;;;;;;;12.50;2.45;;;;;;;;;;5081254;28;20067;-71
2022/02/22 13:51:35;;;;;;;7.88;2.55;;;;;;;;;;5081357;28;20017;-79
2022/02/22 13:54:01;;;;;;;12.60;3.15;;;;;;;;;;5078685;28;20028;-77
2022/02/22 13:56:28;;;;;;;11.68;2.63;;;;;;;;;;5083817;28;20034;-73
2022/02/22 13:59:03;;;;;;;7.03;2.30;;;;;;;;;;5084198;28;20023;-78
2022/02/22 14:01:30;;;;;;;10.20;2.60;;;;;;;;;;5089336;28;20103;-90
2022/02/22 14:03:56;;;;;;;10.73;2.25;;;;;;;;;;5083099;28;20030;-72
2022/02/22 14:06:22;;;;;;;21.08;2.83;;;;;;;;;;5081499;28;20044;-76
2022/02/22 14:08:50;;;;;;;9.52;2.65;;;;;;;;;;5063453;28;20024;-71
2022/02/22 14:11:16;;;;;;;14.20;2.60;;;;;;;;;;5079827;28;20099;-71
2022/02/22 14:13:42;;;;;;;7.68;2.28;;;;;;;;;;5081480;28;20022;-78
2022/02/22 14:16:08;;;;;;;7.22;2.28;;;;;;;;;;5079992;28;20365;-79
2022/02/22 14:18:35;;;;;;;14.48;2.30;;;;;;;;;;5081118;28;20036;-78
2022/02/22 14:21:01;;;;;;;11.35;2.80;;;;;;;;;;5078915;28;20054;-76
2022/02/22 14:23:27;;;;;;;15.77;3.20;;;;;;;;;;5080539;28;20429;-77
2022/02/22 14:25:53;;;;;;;9.63;2.03;;;;;;;;;;5080845;28;20028;-75
2022/02/22 14:28:19;;;;;;;11.70;2.45;;;;;;;;;;5080823;28;20483;-74
2022/02/22 14:30:47;;;;;;;11.82;2.33;;;;;;;;;;5080686;28;20452;-81
2022/02/22 14:33:13;;;;;;;14.48;2.90;;;;;;;;;;5077587;28;20511;-80
2022/02/22 14:35:40;;;;;;;15.40;3.05;;;;;;;;;;5079099;28;20020;-84
2022/02/22 14:38:07;;;;;;;14.80;2.92;;;;;;;;;;5070589;28;20117;-86